createdAt,value
2022-09-28T00:02:12.622Z,1.30
2022-09-28T00:04:39.265Z,1.00
2022-09-28T00:07:05.668Z,1.20
2022-09-28T00:09:32.164Z,1.37
2022-09-28T00:11:59.493Z,1.33
2022-09-28T00:14:26.378Z,1.50
2022-09-28T00:16:52.981Z,1.40
2022-09-28T00:19:19.459Z,1.60
2022-09-28T00:21:46.144Z,1.50
2022-09-28T00:24:15.137Z,1.30
2022-09-28T00:26:41.720Z,1.40
2022-09-28T00:29:13.254Z,1.70
2022-09-28T00:31:39.793Z,1.43
2022-09-28T00:34:06.337Z,1.40
2022-09-28T00:36:33.559Z,1.50
2022-09-28T00:39:03.294Z,1.50
2022-09-28T00:41:29.774Z,1.53
2022-09-28T00:44:15.151Z,1.40
2022-09-28T00:46:41.687Z,1.40
2022-09-28T00:49:11.328Z,1.43
2022-09-28T00:51:38.765Z,1.63
2022-09-28T00:54:05.937Z,1.40
2022-09-28T00:56:34.011Z,1.67
2022-09-28T00:59:01.801Z,1.37
2022-09-28T01:01:28.616Z,1.53
2022-09-28T01:03:55.198Z,1.30
2022-09-28T01:06:22.622Z,1.60
2022-09-28T01:08:51.508Z,1.47
2022-09-28T01:11:19.486Z,1.67
2022-09-28T01:13:46.930Z,1.40
2022-09-28T01:16:38.420Z,1.40
2022-09-28T01:19:46.238Z,1.67
2022-09-28T01:22:32.111Z,1.50
2022-09-28T01:25:19.334Z,1.30
2022-09-28T01:27:54.558Z,1.60
2022-09-28T01:30:21.526Z,1.60
2022-09-28T01:32:52.184Z,1.47
2022-09-28T01:35:22.975Z,1.40
2022-09-28T01:37:58.811Z,1.50
2022-09-28T01:40:26.471Z,1.40
2022-09-28T01:43:11.542Z,1.17
2022-09-28T01:45:41.452Z,1.40
2022-09-28T01:48:10.044Z,1.50
2022-09-28T01:50:38.386Z,1.50
2022-09-28T01:53:07.928Z,1.60
2022-09-28T01:55:36.975Z,1.40
2022-09-28T01:58:18.579Z,1.60
2022-09-28T02:00:48.212Z,1.40
2022-09-28T02:03:19.241Z,1.17
2022-09-28T02:05:57.539Z,1.20
2022-09-28T02:08:39.064Z,1.30
2022-09-28T02:11:12.876Z,1.60
2022-09-28T02:13:41.502Z,1.30
2022-09-28T02:16:22.248Z,1.30
2022-09-28T02:18:50.030Z,1.33
2022-09-28T02:21:22.626Z,1.90
2022-09-28T02:24:02.484Z,1.40
2022-09-28T02:26:34.790Z,1.20
2022-09-28T02:29:01.555Z,1.43
2022-09-28T02:31:28.540Z,1.30
2022-09-28T02:33:56.214Z,1.30
2022-09-28T02:36:23.153Z,1.33
2022-09-28T02:38:49.676Z,1.40
2022-09-28T02:41:23.938Z,1.70
2022-09-28T02:43:59.598Z,1.30
2022-09-28T02:46:26.811Z,1.30
2022-09-28T02:49:21.865Z,1.30
2022-09-28T02:52:06.211Z,1.50
2022-09-28T02:54:33.045Z,1.53
2022-09-28T02:56:59.504Z,1.30
2022-09-28T02:59:34.240Z,1.27
2022-09-28T03:02:04.300Z,1.27
2022-09-28T03:04:37.365Z,1.50
2022-09-28T03:07:21.979Z,1.53
2022-09-28T03:09:54.270Z,1.60
2022-09-28T03:12:23.755Z,1.30
2022-09-28T03:15:14.257Z,1.40
2022-09-28T03:17:42.206Z,1.50
2022-09-28T03:20:10.102Z,1.60
2022-09-28T03:22:36.788Z,1.27
2022-09-28T03:25:03.522Z,1.30
2022-09-28T03:27:30.053Z,1.27
2022-09-28T03:29:56.472Z,1.33
2022-09-28T03:32:23.049Z,1.40
2022-09-28T03:34:49.496Z,1.17
2022-09-28T03:37:15.975Z,1.10
2022-09-28T03:39:42.436Z,1.30
2022-09-28T03:42:08.896Z,1.20
2022-09-28T03:44:39.330Z,1.50
2022-09-28T03:47:07.575Z,1.37
2022-09-28T03:49:35.694Z,1.10
2022-09-28T03:52:02.421Z,1.30
2022-09-28T03:54:29.002Z,1.43
2022-09-28T03:56:55.493Z,1.50
2022-09-28T03:59:21.986Z,1.50
2022-09-28T04:01:51.683Z,1.30
2022-09-28T04:04:18.450Z,1.30
2022-09-28T04:06:45.539Z,1.20
2022-09-28T04:09:12.259Z,1.23
2022-09-28T04:11:59.814Z,1.33
2022-09-28T04:14:25.256Z,1.30
2022-09-28T04:16:54.864Z,1.20
2022-09-28T04:19:23.120Z,1.43
2022-09-28T04:22:09.923Z,1.30
2022-09-28T04:24:37.607Z,1.20
2022-09-28T04:27:22.943Z,1.23
2022-09-28T04:29:49.399Z,1.40
2022-09-28T04:32:16.595Z,1.30
2022-09-28T04:34:44.302Z,1.47
2022-09-28T04:37:11.627Z,1.30
2022-09-28T04:39:42.253Z,1.40
2022-09-28T04:42:11.509Z,1.50
2022-09-28T04:44:38.799Z,1.30
2022-09-28T04:47:08.727Z,1.20
2022-09-28T04:49:53.958Z,1.30
2022-09-28T04:52:27.236Z,1.30
2022-09-28T04:54:53.664Z,1.33
2022-09-28T04:57:20.890Z,1.40
2022-09-28T04:59:47.534Z,1.33
2022-09-28T05:02:15.099Z,1.10
2022-09-28T05:05:00.886Z,1.23
2022-09-28T05:07:46.039Z,1.42
2022-09-28T05:10:13.343Z,1.33
2022-09-28T05:12:40.428Z,1.40
2022-09-28T05:15:07.586Z,1.50
2022-09-28T05:17:34.168Z,1.33
2022-09-28T05:20:10.095Z,1.60
2022-09-28T05:22:36.559Z,1.20
2022-09-28T05:25:04.884Z,1.60
2022-09-28T05:27:41.126Z,1.30
2022-09-28T05:30:22.852Z,1.60
2022-09-28T05:33:09.034Z,1.70
2022-09-28T05:35:45.020Z,1.57
2022-09-28T05:38:11.456Z,1.20
2022-09-28T05:40:37.947Z,1.30
2022-09-28T05:43:04.521Z,1.50
2022-09-28T05:45:32.000Z,2.00
2022-09-28T05:47:58.589Z,1.80
2022-09-28T05:50:25.158Z,1.53
2022-09-28T05:52:58.903Z,1.40
2022-09-28T05:55:25.506Z,1.70
2022-09-28T05:57:51.969Z,1.93
2022-09-28T06:00:19.127Z,1.50
2022-09-28T06:02:56.150Z,1.67
2022-09-28T06:05:22.919Z,2.20
2022-09-28T06:07:49.346Z,1.90
2022-09-28T06:10:16.258Z,1.50
2022-09-28T06:12:42.923Z,1.60
2022-09-28T06:15:14.678Z,1.50
2022-09-28T06:17:41.292Z,1.33
2022-09-28T06:20:27.720Z,1.43
2022-09-28T06:23:07.785Z,1.33
2022-09-28T06:25:34.264Z,1.40
2022-09-28T06:28:01.918Z,1.47
2022-09-28T06:30:29.326Z,1.53
2022-09-28T06:32:57.004Z,1.50
2022-09-28T06:35:25.411Z,1.33
2022-09-28T06:37:52.538Z,1.60
2022-09-28T06:40:20.920Z,2.07
2022-09-28T06:43:07.012Z,1.80
2022-09-28T06:45:53.166Z,1.37
2022-09-28T06:48:40.139Z,1.50
2022-09-28T06:51:09.145Z,1.60
2022-09-28T06:53:56.917Z,1.40
2022-09-28T06:56:37.133Z,1.90
2022-09-28T06:59:03.852Z,1.60
2022-09-28T07:01:30.583Z,2.90
2022-09-28T07:04:10.248Z,3.20
2022-09-28T07:06:59.944Z,3.67
2022-09-28T07:10:05.012Z,3.70
2022-09-28T07:12:42.900Z,5.67
2022-09-28T07:15:32.362Z,3.80
2022-09-28T07:18:03.222Z,4.20
2022-09-28T07:20:33.379Z,3.80
2022-09-28T07:23:14.346Z,4.03
2022-09-28T07:26:22.951Z,4.80
2022-09-28T07:28:59.571Z,5.23
2022-09-28T07:31:33.730Z,5.20
2022-09-28T07:34:19.225Z,4.90
2022-09-28T07:37:09.962Z,4.60
2022-09-28T07:39:56.548Z,5.00
2022-09-28T07:42:23.616Z,4.03
2022-09-28T07:44:50.233Z,3.90
2022-09-28T07:47:17.962Z,3.80
2022-09-28T07:50:03.044Z,4.13
2022-09-28T07:52:58.143Z,4.10
2022-09-28T07:55:40.139Z,4.00
2022-09-28T07:58:06.601Z,4.27
2022-09-28T08:00:51.544Z,4.77
2022-09-28T08:03:19.197Z,5.13
2022-09-28T08:05:46.926Z,4.90
2022-09-28T08:08:14.005Z,4.17
2022-09-28T08:10:47.009Z,4.63
2022-09-28T08:13:23.554Z,3.97
2022-09-28T08:16:13.882Z,4.80
2022-09-28T08:18:50.408Z,4.00
2022-09-28T08:21:35.725Z,4.70
2022-09-28T08:24:02.136Z,4.03
2022-09-28T08:26:29.214Z,4.20
2022-09-28T08:28:55.749Z,4.60
2022-09-28T08:31:40.575Z,4.00
2022-09-28T08:34:25.546Z,4.70
2022-09-28T08:37:15.217Z,4.13
2022-09-28T08:40:13.621Z,4.40
2022-09-28T08:43:00.964Z,4.30
2022-09-28T08:45:46.060Z,4.97
2022-09-28T08:49:23.655Z,4.53
2022-09-28T08:52:23.479Z,4.00
2022-09-28T08:55:08.873Z,4.80
2022-09-28T08:57:44.370Z,4.73
2022-09-28T09:00:16.941Z,4.37
2022-09-28T09:02:43.913Z,5.13
2022-09-28T09:05:19.178Z,4.30
2022-09-28T09:08:33.141Z,4.10
2022-09-28T09:11:21.171Z,3.47
2022-09-28T09:13:57.378Z,3.57
2022-09-28T09:16:28.131Z,4.03
2022-09-28T09:19:17.872Z,3.93
2022-09-28T09:22:11.737Z,3.80
2022-09-28T09:25:11.068Z,4.20
2022-09-28T09:27:47.129Z,4.83
2022-09-28T09:30:20.217Z,4.77
2022-09-28T09:32:47.315Z,4.27
2022-09-28T09:35:17.993Z,4.17
2022-09-28T09:38:23.470Z,4.17
2022-09-28T09:44:21.431Z,3.03
2022-09-28T09:47:06.123Z,3.50
2022-09-28T09:49:43.271Z,3.30
2022-09-28T09:52:18.246Z,3.57
2022-09-28T09:54:55.937Z,3.53
2022-09-28T09:57:50.976Z,3.67
2022-09-28T10:00:34.023Z,3.60
2022-09-28T10:03:29.988Z,3.00
2022-09-28T10:06:09.387Z,3.50
2022-09-28T10:08:39.624Z,3.00
2022-09-28T10:11:29.802Z,3.50
2022-09-28T10:13:57.789Z,3.27
2022-09-28T10:16:51.591Z,3.70
2022-09-28T10:19:38.000Z,3.70
2022-09-28T10:22:24.724Z,4.57
2022-09-28T10:24:56.858Z,3.50
2022-09-28T10:27:24.906Z,3.67
2022-09-28T10:29:53.654Z,3.30
2022-09-28T10:32:21.857Z,3.20
2022-09-28T10:34:51.190Z,3.67
2022-09-28T10:37:20.102Z,3.10
2022-09-28T10:40:28.223Z,3.30
2022-09-28T10:42:59.980Z,3.70
2022-09-28T10:45:27.788Z,3.50
2022-09-28T10:47:55.762Z,3.70
2022-09-28T10:50:27.507Z,3.53
2022-09-28T10:53:17.239Z,2.90
2022-09-28T10:56:03.214Z,2.40
2022-09-28T10:58:37.414Z,2.37
2022-09-28T11:01:09.477Z,2.60
2022-09-28T11:03:40.065Z,2.87
2022-09-28T11:06:07.697Z,4.33
2022-09-28T11:08:42.848Z,2.13
2022-09-28T11:11:15.608Z,1.63
2022-09-28T11:13:45.997Z,2.10
2022-09-28T11:16:20.135Z,2.40
2022-09-28T11:18:47.017Z,3.70
2022-09-28T11:21:15.460Z,4.70
2022-09-28T11:24:01.313Z,4.10
2022-09-28T11:26:34.750Z,7.47
2022-09-28T11:29:01.247Z,6.67
2022-09-28T11:31:39.806Z,6.10
2022-09-28T11:34:41.792Z,4.23
2022-09-28T11:37:15.400Z,4.30
2022-09-28T11:39:48.251Z,4.17
2022-09-28T11:42:30.230Z,3.70
2022-09-28T11:45:16.900Z,3.40
2022-09-28T11:47:53.529Z,2.97
2022-09-28T11:50:39.845Z,3.10
2022-09-28T11:53:22.035Z,27.43
2022-09-28T11:55:55.923Z,30.03
2022-09-28T11:58:34.956Z,20.73
2022-09-28T12:01:08.649Z,23.07
2022-09-28T12:04:03.960Z,6.73
2022-09-28T12:06:37.876Z,4.00
2022-09-28T12:09:13.415Z,3.63
2022-09-28T12:11:55.840Z,4.03
2022-09-28T12:14:40.033Z,3.43
2022-09-28T12:17:20.087Z,2.77
2022-09-28T12:19:52.041Z,3.27
2022-09-28T12:22:22.979Z,3.40
2022-09-28T12:24:50.873Z,4.90
2022-09-28T12:27:27.832Z,5.73
2022-09-28T12:30:05.190Z,3.50
2022-09-28T12:32:43.863Z,3.60
2022-09-28T12:35:11.983Z,3.40
2022-09-28T12:37:53.942Z,2.90
2022-09-28T12:40:28.388Z,2.40
2022-09-28T12:43:07.097Z,2.37
2022-09-28T12:46:07.069Z,2.60
2022-09-28T12:48:36.156Z,2.40
2022-09-28T12:51:05.534Z,2.10
2022-09-28T12:53:44.063Z,2.10
2022-09-28T12:56:26.108Z,1.87
2022-09-28T12:59:01.508Z,1.90
2022-09-28T13:01:36.271Z,3.40
2022-09-28T13:04:12.798Z,5.10
2022-09-28T13:06:47.147Z,10.03
2022-09-28T13:09:20.072Z,9.57
2022-09-28T13:11:54.502Z,20.30
2022-09-28T13:14:30.337Z,14.77
2022-09-28T13:17:23.130Z,4.50
2022-09-28T13:19:49.532Z,3.50
2022-09-28T13:22:21.736Z,3.07
2022-09-28T13:24:48.885Z,4.20
2022-09-28T13:27:18.721Z,1.97
2022-09-28T13:29:45.534Z,1.73
2022-09-28T13:32:12.835Z,1.77
2022-09-28T13:34:39.413Z,1.23
2022-09-28T13:37:16.867Z,1.50
2022-09-28T13:39:48.870Z,1.60
2022-09-28T13:42:24.586Z,1.93
2022-09-28T13:44:50.996Z,1.60
2022-09-28T13:47:41.392Z,1.37
2022-09-28T13:50:17.116Z,1.40
2022-09-28T13:52:55.522Z,1.60
2022-09-28T13:55:53.949Z,1.90
2022-09-28T13:58:24.433Z,3.40
2022-09-28T14:00:56.659Z,1.77
2022-09-28T14:03:27.985Z,1.40
2022-09-28T14:06:04.312Z,1.20
2022-09-28T14:08:38.504Z,1.77
2022-09-28T14:11:24.709Z,1.40
2022-09-28T14:14:01.643Z,1.40
2022-09-28T14:16:31.232Z,1.47
2022-09-28T14:19:07.966Z,1.23
2022-09-28T14:21:37.154Z,1.57
2022-09-28T14:24:14.703Z,1.40
2022-09-28T14:26:56.226Z,1.90
2022-09-28T14:29:29.881Z,1.83
2022-09-28T14:31:58.229Z,1.70
2022-09-28T14:34:34.311Z,1.43
2022-09-28T14:37:21.028Z,1.10
2022-09-28T14:40:06.350Z,1.50
2022-09-28T14:42:32.850Z,1.73
2022-09-28T14:45:06.076Z,2.33
2022-09-28T14:47:33.563Z,2.00
2022-09-28T14:50:00.885Z,2.07
2022-09-28T14:52:46.307Z,1.80
2022-09-28T14:55:13.895Z,1.90
2022-09-28T14:57:43.286Z,1.60
2022-09-28T15:00:20.323Z,1.70
2022-09-28T15:02:48.976Z,1.73
2022-09-28T15:05:23.273Z,1.87
2022-09-28T15:07:51.818Z,1.80
2022-09-28T15:10:33.569Z,1.70
2022-09-28T15:13:04.136Z,2.00
2022-09-28T15:15:40.859Z,2.10
2022-09-28T15:18:16.741Z,2.37
2022-09-28T15:20:45.470Z,2.00
2022-09-28T15:23:30.092Z,2.50
2022-09-28T15:25:56.556Z,2.30
2022-09-28T15:28:23.777Z,2.60
2022-09-28T15:30:50.359Z,2.70
2022-09-28T15:33:42.435Z,2.77
2022-09-28T15:36:09.820Z,2.90
2022-09-28T15:38:36.338Z,2.30
2022-09-28T15:41:04.615Z,2.40
2022-09-28T15:43:34.754Z,2.33
2022-09-28T15:46:18.455Z,2.60
2022-09-28T15:48:53.418Z,2.37
2022-09-28T15:51:21.414Z,2.70
2022-09-28T15:53:50.998Z,2.77
2022-09-28T15:56:17.467Z,2.47
2022-09-28T15:58:44.023Z,2.10
2022-09-28T16:01:36.184Z,2.13
2022-09-28T16:04:21.573Z,1.60
2022-09-28T16:07:06.640Z,1.63
2022-09-28T16:09:40.260Z,1.57
2022-09-28T16:12:09.596Z,1.60
2022-09-28T16:14:36.073Z,1.30
2022-09-28T16:17:04.025Z,1.40
2022-09-28T16:19:36.093Z,1.33
2022-09-28T16:22:05.326Z,3.07
2022-09-28T16:24:36.186Z,7.70
2022-09-28T16:27:07.879Z,7.43
2022-09-28T16:29:39.813Z,2.50
2022-09-28T16:32:33.600Z,2.00
2022-09-28T16:35:05.801Z,2.20
2022-09-28T16:37:32.367Z,2.10
2022-09-28T16:39:58.842Z,2.10
2022-09-28T16:42:27.398Z,1.67
2022-09-28T16:44:56.362Z,1.80
2022-09-28T16:47:23.490Z,1.63
2022-09-28T16:49:50.252Z,1.80
2022-09-28T16:52:36.608Z,1.80
2022-09-28T16:58:04.940Z,1.60
2022-09-28T17:00:31.854Z,1.50
2022-09-28T17:02:58.599Z,1.57
2022-09-28T17:05:25.555Z,1.90
2022-09-28T17:08:02.677Z,1.70
2022-09-28T17:10:45.152Z,1.20
2022-09-28T17:13:34.669Z,1.73
2022-09-28T17:16:03.120Z,1.40
2022-09-28T17:18:31.940Z,1.60
2022-09-28T17:20:59.915Z,1.60
2022-09-28T17:23:26.409Z,1.57
2022-09-28T17:25:54.646Z,1.50
2022-09-28T17:28:28.878Z,1.63
2022-09-28T17:30:55.568Z,1.60
2022-09-28T17:33:22.058Z,1.57
2022-09-28T17:35:49.515Z,1.87
2022-09-28T17:38:16.033Z,2.10
2022-09-28T17:40:43.607Z,2.50
2022-09-28T17:43:10.126Z,2.70
2022-09-28T17:45:39.477Z,3.07
2022-09-28T17:48:06.713Z,3.97
2022-09-28T17:50:34.165Z,3.60
2022-09-28T17:53:03.863Z,3.30
2022-09-28T17:55:33.536Z,3.83
2022-09-28T17:58:04.279Z,4.20
2022-09-28T18:00:31.486Z,4.10
2022-09-28T18:02:58.357Z,4.50
2022-09-28T18:05:26.362Z,4.60
2022-09-28T18:07:52.853Z,4.50
2022-09-28T18:10:23.801Z,5.50
2022-09-28T18:12:50.724Z,5.00
2022-09-28T18:15:19.218Z,5.17
2022-09-28T18:17:45.860Z,5.10
2022-09-28T18:20:12.914Z,4.93
2022-09-28T18:22:39.349Z,5.50
2022-09-28T18:25:06.449Z,5.13
2022-09-28T18:27:35.791Z,5.27
2022-09-28T18:30:02.351Z,5.20
2022-09-28T18:32:28.813Z,4.70
2022-09-28T18:34:55.288Z,3.83
2022-09-28T18:37:21.729Z,3.83
2022-09-28T18:39:48.335Z,3.50
2022-09-28T18:42:14.983Z,3.53
2022-09-28T18:44:41.476Z,2.97
2022-09-28T18:47:07.908Z,3.10
2022-09-28T18:49:34.500Z,3.13
2022-09-28T18:52:02.077Z,2.90
2022-09-28T18:54:28.810Z,2.83
2022-09-28T18:56:56.369Z,2.67
2022-09-28T18:59:23.459Z,2.17
2022-09-28T19:01:50.208Z,2.20
2022-09-28T19:04:17.023Z,2.20
2022-09-28T19:06:44.686Z,2.27
2022-09-28T19:09:11.713Z,2.60
2022-09-28T19:11:38.241Z,2.30
2022-09-28T19:14:04.710Z,2.23
2022-09-28T19:16:33.720Z,2.10
2022-09-28T19:19:00.968Z,1.87
2022-09-28T19:21:27.563Z,1.77
2022-09-28T19:23:55.411Z,2.00
2022-09-28T19:26:26.893Z,2.23
2022-09-28T19:28:54.001Z,5.20
2022-09-28T19:31:20.605Z,2.10
2022-09-28T19:33:47.139Z,1.80
2022-09-28T19:36:14.926Z,2.03
2022-09-28T19:38:41.473Z,2.30
2022-09-28T19:41:11.427Z,2.57
2022-09-28T19:43:38.283Z,2.57
2022-09-28T19:46:05.865Z,2.40
2022-09-28T19:48:33.530Z,2.80
2022-09-28T19:51:04.172Z,4.30
2022-09-28T19:53:32.940Z,4.40
2022-09-28T19:56:03.742Z,4.70
2022-09-28T19:58:31.409Z,4.37
2022-09-28T20:00:57.827Z,4.13
2022-09-28T20:03:25.904Z,4.47
2022-09-28T20:05:58.843Z,4.47
2022-09-28T20:08:26.263Z,4.60
2022-09-28T20:10:54.560Z,4.37
2022-09-28T20:13:21.456Z,5.60
2022-09-28T20:15:48.263Z,5.60
2022-09-28T20:18:15.453Z,6.87
2022-09-28T20:20:42.609Z,10.73
2022-09-28T20:23:09.293Z,11.43
2022-09-28T20:25:35.783Z,10.40
2022-09-28T20:28:02.205Z,10.67
2022-09-28T20:30:28.683Z,8.17
2022-09-28T20:32:55.123Z,5.10
2022-09-28T20:35:32.305Z,3.93
2022-09-28T20:38:07.801Z,4.30
2022-09-28T20:40:35.227Z,3.10
2022-09-28T20:43:01.853Z,2.63
2022-09-28T20:45:28.270Z,3.00
2022-09-28T20:47:54.707Z,2.90
2022-09-28T20:50:22.037Z,3.30
2022-09-28T20:52:48.540Z,2.73
2022-09-28T20:55:15.026Z,2.50
2022-09-28T20:57:41.439Z,2.27
2022-09-28T21:00:08.923Z,2.80
2022-09-28T21:02:39.596Z,2.20
2022-09-28T21:05:06.840Z,2.70
2022-09-28T21:07:33.370Z,2.30
2022-09-28T21:09:59.806Z,2.30
2022-09-28T21:12:28.109Z,2.70
2022-09-28T21:14:54.590Z,2.13
2022-09-28T21:17:22.768Z,2.40
2022-09-28T21:19:49.203Z,2.47
2022-09-28T21:22:15.640Z,2.30
2022-09-28T21:24:42.111Z,2.23
2022-09-28T21:27:08.528Z,2.60
2022-09-28T21:29:34.928Z,2.40
2022-09-28T21:32:01.483Z,2.47
2022-09-28T21:34:27.873Z,2.70
2022-09-28T21:36:54.758Z,2.43
2022-09-28T21:39:21.253Z,2.70
2022-09-28T21:41:48.120Z,2.57
2022-09-28T21:44:14.621Z,2.80
2022-09-28T21:46:41.357Z,2.53
2022-09-28T21:49:08.226Z,2.60
2022-09-28T21:51:35.138Z,2.60
2022-09-28T21:54:01.589Z,2.60
2022-09-28T21:56:28.085Z,2.40
2022-09-28T21:58:54.533Z,2.70
2022-09-28T22:01:22.204Z,2.80
2022-09-28T22:03:52.653Z,2.80
2022-09-28T22:06:20.156Z,2.83
2022-09-28T22:08:46.957Z,2.40
2022-09-28T22:11:15.010Z,2.53
2022-09-28T22:13:42.692Z,3.07
2022-09-28T22:16:09.749Z,2.63
2022-09-28T22:18:36.660Z,3.00
2022-09-28T22:21:03.072Z,2.60
2022-09-28T22:23:30.068Z,2.60
2022-09-28T22:26:00.414Z,3.00
2022-09-28T22:28:27.541Z,2.80
2022-09-28T22:30:54.019Z,3.00
2022-09-28T22:33:20.496Z,2.83
2022-09-28T22:35:49.151Z,2.73
2022-09-28T22:38:15.756Z,3.13
2022-09-28T22:40:47.027Z,2.87
2022-09-28T22:43:13.504Z,2.90
2022-09-28T22:45:39.908Z,3.00
2022-09-28T22:48:07.181Z,2.97
2022-09-28T22:50:34.287Z,3.00
2022-09-28T22:53:01.956Z,3.43
2022-09-28T22:55:29.022Z,3.33
2022-09-28T22:57:55.498Z,3.50
2022-09-28T23:00:21.976Z,3.90
2022-09-28T23:02:48.414Z,3.60
2022-09-28T23:05:15.024Z,3.70
2022-09-28T23:07:41.429Z,3.57
2022-09-28T23:10:08.027Z,3.97
2022-09-28T23:12:35.710Z,3.90
2022-09-28T23:15:02.254Z,3.63
2022-09-28T23:17:28.763Z,4.20
2022-09-28T23:19:55.176Z,4.07
2022-09-28T23:22:21.600Z,4.17
2022-09-28T23:24:48.066Z,4.10
2022-09-28T23:27:14.454Z,4.40
2022-09-28T23:29:46.765Z,4.97
2022-09-28T23:32:13.641Z,4.60
2022-09-28T23:34:40.104Z,4.93
2022-09-28T23:37:06.536Z,5.40
2022-09-28T23:39:33.168Z,5.73
2022-09-28T23:41:59.577Z,5.63
2022-09-28T23:44:27.979Z,5.53
2022-09-28T23:46:54.657Z,5.70
2022-09-28T23:49:21.176Z,6.23
2022-09-28T23:51:47.592Z,6.43
2022-09-28T23:54:13.999Z,6.50
2022-09-28T23:56:40.412Z,5.83
2022-09-28T23:59:07.583Z,6.53
